• Join FlightAware (Why Join?)
  • Login
  • US Flag 
07:25AM EDT


 

Airport Tracker/Info


-or-


 

Live Flight TrackerFlight Track Log ✈ CTL17 ✈ 20-Jun-2013 ✈ KPTK - KMBS

Flight Track Log - Related Links

Times and Time Zones

All times are in EDT time to prevent confusion due to time zone crossing. See the CTL17 flight status page for this flight to view local times or setup timezone preferences in your user account.

Time Position Orientation Groundspeed Altitude Reporting Facility
EDT Latitude Longitude Course Direction KTS MPH feet Rate Location/Type
03:53PM 42.6622 -83.4492 27° Northeast 125 144 1,400  Level Cleveland Center
03:55PM 42.7270 -83.4044 27° Northeast  Level FlightAware Approximate
04:02PM 42.9995 -83.4761 321° Northwest  Level FlightAware Approximate
04:03PM 43.0328 -83.5128 321° Northwest  Level FlightAware Approximate
04:04PM 43.0660 -83.5496 321° Northwest  Level FlightAware Approximate
04:05PM 43.0993 -83.5864 321° Northwest  Level FlightAware Approximate
04:06PM 43.1325 -83.6232 321° Northwest  Level FlightAware Approximate
04:07PM 43.1658 -83.6601 321° Northwest  Level FlightAware Approximate
04:08PM 43.1990 -83.6970 321° Northwest  Level FlightAware Approximate
04:09PM 43.2316 -83.7349 318° Northwest  Level FlightAware Approximate
04:10PM 43.2636 -83.7739 318° Northwest  Level FlightAware Approximate
04:11PM 43.2955 -83.8129 318° Northwest  Level FlightAware Approximate
04:12PM 43.3275 -83.8520 318° Northwest  Level FlightAware Approximate
04:13PM 43.3594 -83.8911 318° Northwest  Level FlightAware Approximate
04:14PM 43.3934 -83.9267 324° Northwest  Level FlightAware Approximate
04:15PM 43.4280 -83.9612 324° Northwest  Level FlightAware Approximate
04:16PM 43.4626 -83.9958 324° Northwest  Level FlightAware Approximate
04:17PM 43.4972 -84.0305 324° Northwest  Level FlightAware Approximate
04:18PM 43.5167 -84.0667 305° West  Level FlightAware Approximate
04:19PM 43.5329 -84.0796 305° West  Level Estimated
04:20PM 43.5329 -84.0796 305° West  Level Estimated
04:21PM 43.5329 -84.0796 305° West  Level Estimated
04:22PM 43.5329 -84.0796 305° West  Level Estimated
04:23PM 43.5329 -84.0796 305° West  Level Estimated
04:24PM 43.5329 -84.0796 305° West  Level Estimated